sensor_id;sensor_type;location;lat;lon;timestamp;P1;durP1;ratioP1;P2;durP2;ratioP2
49948;SDS011;35840;45.982;8.890;2022-12-20T00:01:11;10.55;;;7.07;;
49948;SDS011;35840;45.982;8.890;2022-12-20T00:03:41;13.90;;;7.43;;
49948;SDS011;35840;45.982;8.890;2022-12-20T00:06:09;12.20;;;7.55;;
49948;SDS011;35840;45.982;8.890;2022-12-20T00:08:37;12.25;;;6.90;;
49948;SDS011;35840;45.982;8.890;2022-12-20T00:11:05;11.55;;;7.85;;
49948;SDS011;35840;45.982;8.890;2022-12-20T00:13:32;14.02;;;7.57;;
49948;SDS011;35840;45.982;8.890;2022-12-20T00:18:32;11.98;;;7.35;;
49948;SDS011;35840;45.982;8.890;2022-12-20T00:21:00;10.32;;;6.60;;
49948;SDS011;35840;45.982;8.890;2022-12-20T00:23:28;10.45;;;6.55;;
49948;SDS011;35840;45.982;8.890;2022-12-20T00:26:02;11.43;;;6.32;;
49948;SDS011;35840;45.982;8.890;2022-12-20T00:28:33;10.55;;;6.50;;
49948;SDS011;35840;45.982;8.890;2022-12-20T00:31:02;11.35;;;6.78;;
49948;SDS011;35840;45.982;8.890;2022-12-20T00:33:32;12.48;;;7.03;;
49948;SDS011;35840;45.982;8.890;2022-12-20T00:36:00;13.43;;;7.22;;
49948;SDS011;35840;45.982;8.890;2022-12-20T00:38:27;16.52;;;7.93;;
49948;SDS011;35840;45.982;8.890;2022-12-20T00:41:04;10.45;;;6.25;;
49948;SDS011;35840;45.982;8.890;2022-12-20T00:43:36;10.93;;;5.82;;
49948;SDS011;35840;45.982;8.890;2022-12-20T00:46:03;14.85;;;6.95;;
49948;SDS011;35840;45.982;8.890;2022-12-20T00:48:32;9.32;;;5.88;;
49948;SDS011;35840;45.982;8.890;2022-12-20T00:51:00;11.43;;;5.43;;
49948;SDS011;35840;45.982;8.890;2022-12-20T00:53:28;12.90;;;7.28;;
49948;SDS011;35840;45.982;8.890;2022-12-20T00:55:56;8.65;;;5.57;;
49948;SDS011;35840;45.982;8.890;2022-12-20T00:58:24;9.20;;;4.63;;
49948;SDS011;35840;45.982;8.890;2022-12-20T01:00:51;7.57;;;4.82;;
49948;SDS011;35840;45.982;8.890;2022-12-20T01:03:22;10.50;;;5.43;;
49948;SDS011;35840;45.982;8.890;2022-12-20T01:05:50;8.15;;;4.72;;
49948;SDS011;35840;45.982;8.890;2022-12-20T01:08:22;9.77;;;4.50;;
49948;SDS011;35840;45.982;8.890;2022-12-20T01:10:57;8.05;;;4.28;;
49948;SDS011;35840;45.982;8.890;2022-12-20T01:13:25;7.72;;;4.65;;
49948;SDS011;35840;45.982;8.890;2022-12-20T01:15:52;7.10;;;4.55;;
49948;SDS011;35840;45.982;8.890;2022-12-20T01:18:19;9.20;;;4.95;;
49948;SDS011;35840;45.982;8.890;2022-12-20T01:20:46;8.38;;;5.28;;
49948;SDS011;35840;45.982;8.890;2022-12-20T01:23:12;8.38;;;5.20;;
49948;SDS011;35840;45.982;8.890;2022-12-20T01:25:39;7.63;;;4.97;;
49948;SDS011;35840;45.982;8.890;2022-12-20T01:28:06;7.75;;;4.68;;
49948;SDS011;35840;45.982;8.890;2022-12-20T01:30:32;8.45;;;5.32;;
49948;SDS011;35840;45.982;8.890;2022-12-20T01:32:59;9.60;;;5.93;;
49948;SDS011;35840;45.982;8.890;2022-12-20T01:35:25;8.68;;;5.70;;
49948;SDS011;35840;45.982;8.890;2022-12-20T01:37:52;8.18;;;5.60;;
49948;SDS011;35840;45.982;8.890;2022-12-20T01:40:19;13.00;;;6.18;;
49948;SDS011;35840;45.982;8.890;2022-12-20T01:42:46;8.55;;;5.30;;
49948;SDS011;35840;45.982;8.890;2022-12-20T01:45:13;10.35;;;5.68;;
49948;SDS011;35840;45.982;8.890;2022-12-20T01:47:50;9.40;;;5.93;;
49948;SDS011;35840;45.982;8.890;2022-12-20T01:50:17;7.07;;;5.55;;
49948;SDS011;35840;45.982;8.890;2022-12-20T01:52:44;9.80;;;6.38;;
49948;SDS011;35840;45.982;8.890;2022-12-20T01:55:20;9.65;;;6.22;;
49948;SDS011;35840;45.982;8.890;2022-12-20T01:57:51;10.20;;;5.65;;
49948;SDS011;35840;45.982;8.890;2022-12-20T02:00:24;6.72;;;5.07;;
49948;SDS011;35840;45.982;8.890;2022-12-20T02:02:51;8.55;;;5.00;;
49948;SDS011;35840;45.982;8.890;2022-12-20T02:05:18;9.85;;;5.68;;
49948;SDS011;35840;45.982;8.890;2022-12-20T02:07:48;6.85;;;5.03;;
49948;SDS011;35840;45.982;8.890;2022-12-20T02:10:18;8.52;;;5.07;;
49948;SDS011;35840;45.982;8.890;2022-12-20T02:12:49;8.05;;;5.45;;
49948;SDS011;35840;45.982;8.890;2022-12-20T02:23:24;7.75;;;5.20;;
49948;SDS011;35840;45.982;8.890;2022-12-20T02:34:39;10.13;;;4.85;;
49948;SDS011;35840;45.982;8.890;2022-12-20T02:37:08;7.03;;;4.90;;
49948;SDS011;35840;45.982;8.890;2022-12-20T02:39:36;9.20;;;5.40;;
49948;SDS011;35840;45.982;8.890;2022-12-20T02:42:09;9.05;;;4.70;;
49948;SDS011;35840;45.982;8.890;2022-12-20T02:44:39;7.75;;;5.15;;
49948;SDS011;35840;45.982;8.890;2022-12-20T02:47:30;6.28;;;4.88;;
49948;SDS011;35840;45.982;8.890;2022-12-20T02:50:00;7.05;;;4.40;;
49948;SDS011;35840;45.982;8.890;2022-12-20T02:52:29;7.07;;;4.60;;
49948;SDS011;35840;45.982;8.890;2022-12-20T02:54:57;10.50;;;5.65;;
49948;SDS011;35840;45.982;8.890;2022-12-20T02:57:37;7.38;;;4.38;;
49948;SDS011;35840;45.982;8.890;2022-12-20T03:02:37;9.57;;;4.95;;
49948;SDS011;35840;45.982;8.890;2022-12-20T03:05:25;9.35;;;4.25;;
49948;SDS011;35840;45.982;8.890;2022-12-20T03:07:53;7.65;;;4.28;;
49948;SDS011;35840;45.982;8.890;2022-12-20T03:10:23;5.55;;;3.97;;
49948;SDS011;35840;45.982;8.890;2022-12-20T03:12:50;6.43;;;4.20;;
49948;SDS011;35840;45.982;8.890;2022-12-20T03:15:17;8.98;;;4.60;;
49948;SDS011;35840;45.982;8.890;2022-12-20T03:17:45;8.95;;;4.95;;
49948;SDS011;35840;45.982;8.890;2022-12-20T03:20:12;6.60;;;4.25;;
49948;SDS011;35840;45.982;8.890;2022-12-20T03:22:39;7.25;;;4.45;;
49948;SDS011;35840;45.982;8.890;2022-12-20T03:25:06;6.68;;;4.82;;
49948;SDS011;35840;45.982;8.890;2022-12-20T03:27:34;7.72;;;4.63;;
49948;SDS011;35840;45.982;8.890;2022-12-20T03:30:02;7.85;;;4.32;;
49948;SDS011;35840;45.982;8.890;2022-12-20T03:32:33;5.72;;;4.40;;
49948;SDS011;35840;45.982;8.890;2022-12-20T03:35:00;9.82;;;5.32;;
49948;SDS011;35840;45.982;8.890;2022-12-20T03:37:33;7.70;;;4.25;;
49948;SDS011;35840;45.982;8.890;2022-12-20T03:40:03;7.82;;;4.55;;
49948;SDS011;35840;45.982;8.890;2022-12-20T03:42:31;5.43;;;4.00;;
49948;SDS011;35840;45.982;8.890;2022-12-20T03:44:58;8.23;;;5.03;;
49948;SDS011;35840;45.982;8.890;2022-12-20T03:47:27;7.78;;;4.50;;
49948;SDS011;35840;45.982;8.890;2022-12-20T03:49:54;7.95;;;4.25;;
49948;SDS011;35840;45.982;8.890;2022-12-20T03:52:21;6.20;;;4.45;;
49948;SDS011;35840;45.982;8.890;2022-12-20T03:54:48;7.75;;;4.70;;
49948;SDS011;35840;45.982;8.890;2022-12-20T03:57:18;7.32;;;4.72;;
49948;SDS011;35840;45.982;8.890;2022-12-20T03:59:47;7.72;;;3.88;;
49948;SDS011;35840;45.982;8.890;2022-12-20T04:02:15;5.35;;;3.75;;
49948;SDS011;35840;45.982;8.890;2022-12-20T04:04:42;4.47;;;3.40;;
49948;SDS011;35840;45.982;8.890;2022-12-20T04:07:09;7.88;;;4.57;;
49948;SDS011;35840;45.982;8.890;2022-12-20T04:09:38;10.10;;;3.90;;
49948;SDS011;35840;45.982;8.890;2022-12-20T04:12:09;8.95;;;4.82;;
49948;SDS011;35840;45.982;8.890;2022-12-20T04:14:38;8.50;;;3.88;;
49948;SDS011;35840;45.982;8.890;2022-12-20T04:17:05;5.80;;;3.22;;
49948;SDS011;35840;45.982;8.890;2022-12-20T04:19:32;6.43;;;4.00;;
49948;SDS011;35840;45.982;8.890;2022-12-20T04:22:00;5.18;;;3.83;;
49948;SDS011;35840;45.982;8.890;2022-12-20T04:24:44;6.60;;;3.63;;
49948;SDS011;35840;45.982;8.890;2022-12-20T04:27:26;4.20;;;3.30;;
49948;SDS011;35840;45.982;8.890;2022-12-20T04:29:55;5.47;;;3.47;;
49948;SDS011;35840;45.982;8.890;2022-12-20T04:32:21;4.72;;;3.15;;
49948;SDS011;35840;45.982;8.890;2022-12-20T04:34:49;6.15;;;3.03;;
49948;SDS011;35840;45.982;8.890;2022-12-20T04:37:16;5.97;;;3.15;;
49948;SDS011;35840;45.982;8.890;2022-12-20T04:39:46;4.22;;;3.33;;
49948;SDS011;35840;45.982;8.890;2022-12-20T04:42:19;4.93;;;3.05;;
49948;SDS011;35840;45.982;8.890;2022-12-20T04:44:46;4.93;;;2.95;;
49948;SDS011;35840;45.982;8.890;2022-12-20T04:47:18;4.38;;;2.85;;
49948;SDS011;35840;45.982;8.890;2022-12-20T04:49:45;4.00;;;2.80;;
49948;SDS011;35840;45.982;8.890;2022-12-20T04:52:12;5.13;;;3.00;;
49948;SDS011;35840;45.982;8.890;2022-12-20T04:54:57;6.13;;;3.80;;
49948;SDS011;35840;45.982;8.890;2022-12-20T04:57:28;5.35;;;3.67;;
49948;SDS011;35840;45.982;8.890;2022-12-20T04:59:55;9.50;;;5.22;;
49948;SDS011;35840;45.982;8.890;2022-12-20T05:02:21;7.45;;;5.55;;
49948;SDS011;35840;45.982;8.890;2022-12-20T05:04:52;6.45;;;4.63;;
49948;SDS011;35840;45.982;8.890;2022-12-20T05:07:19;6.70;;;4.40;;
49948;SDS011;35840;45.982;8.890;2022-12-20T05:09:50;6.30;;;4.32;;
49948;SDS011;35840;45.982;8.890;2022-12-20T05:12:17;6.03;;;3.90;;
49948;SDS011;35840;45.982;8.890;2022-12-20T05:14:44;6.40;;;4.00;;
49948;SDS011;35840;45.982;8.890;2022-12-20T05:17:14;5.72;;;3.70;;
49948;SDS011;35840;45.982;8.890;2022-12-20T05:19:40;5.60;;;3.60;;
49948;SDS011;35840;45.982;8.890;2022-12-20T05:22:08;4.22;;;3.33;;
49948;SDS011;35840;45.982;8.890;2022-12-20T05:25:03;7.95;;;3.58;;
49948;SDS011;35840;45.982;8.890;2022-12-20T05:27:51;4.38;;;3.20;;
49948;SDS011;35840;45.982;8.890;2022-12-20T05:30:20;6.72;;;3.80;;
49948;SDS011;35840;45.982;8.890;2022-12-20T05:32:48;8.13;;;3.80;;
49948;SDS011;35840;45.982;8.890;2022-12-20T05:35:14;6.82;;;3.67;;
49948;SDS011;35840;45.982;8.890;2022-12-20T05:37:44;5.18;;;3.20;;
49948;SDS011;35840;45.982;8.890;2022-12-20T05:40:15;6.28;;;3.53;;
49948;SDS011;35840;45.982;8.890;2022-12-20T05:42:43;4.32;;;3.17;;
49948;SDS011;35840;45.982;8.890;2022-12-20T05:45:10;4.75;;;3.35;;
49948;SDS011;35840;45.982;8.890;2022-12-20T05:47:46;5.88;;;3.20;;
49948;SDS011;35840;45.982;8.890;2022-12-20T05:50:13;6.63;;;3.78;;
49948;SDS011;35840;45.982;8.890;2022-12-20T05:53:03;4.75;;;2.90;;
49948;SDS011;35840;45.982;8.890;2022-12-20T05:55:42;3.95;;;2.90;;
49948;SDS011;35840;45.982;8.890;2022-12-20T05:58:23;5.05;;;3.17;;
49948;SDS011;35840;45.982;8.890;2022-12-20T06:00:54;5.10;;;2.83;;
49948;SDS011;35840;45.982;8.890;2022-12-20T06:03:23;7.03;;;2.90;;
49948;SDS011;35840;45.982;8.890;2022-12-20T06:05:50;5.18;;;3.08;;
49948;SDS011;35840;45.982;8.890;2022-12-20T06:08:24;4.22;;;3.28;;
49948;SDS011;35840;45.982;8.890;2022-12-20T06:10:52;4.95;;;3.10;;
49948;SDS011;35840;45.982;8.890;2022-12-20T06:13:20;4.60;;;2.90;;
49948;SDS011;35840;45.982;8.890;2022-12-20T06:15:49;5.75;;;3.30;;
49948;SDS011;35840;45.982;8.890;2022-12-20T06:18:17;4.82;;;3.83;;
49948;SDS011;35840;45.982;8.890;2022-12-20T06:20:49;6.20;;;3.65;;
49948;SDS011;35840;45.982;8.890;2022-12-20T06:23:20;8.90;;;5.60;;
49948;SDS011;35840;45.982;8.890;2022-12-20T06:25:56;8.55;;;4.13;;
49948;SDS011;35840;45.982;8.890;2022-12-20T06:28:27;6.53;;;4.43;;
49948;SDS011;35840;45.982;8.890;2022-12-20T06:30:54;9.40;;;5.70;;
49948;SDS011;35840;45.982;8.890;2022-12-20T06:33:43;9.80;;;5.03;;
49948;SDS011;35840;45.982;8.890;2022-12-20T06:36:12;10.25;;;5.72;;
49948;SDS011;35840;45.982;8.890;2022-12-20T06:38:40;9.52;;;5.50;;
49948;SDS011;35840;45.982;8.890;2022-12-20T06:41:06;7.63;;;4.88;;
49948;SDS011;35840;45.982;8.890;2022-12-20T06:43:34;11.43;;;5.47;;
49948;SDS011;35840;45.982;8.890;2022-12-20T06:46:01;10.88;;;4.53;;
49948;SDS011;35840;45.982;8.890;2022-12-20T06:48:28;10.50;;;4.50;;
49948;SDS011;35840;45.982;8.890;2022-12-20T06:50:55;9.20;;;4.95;;
49948;SDS011;35840;45.982;8.890;2022-12-20T06:53:24;6.05;;;4.13;;
49948;SDS011;35840;45.982;8.890;2022-12-20T06:55:51;6.35;;;4.18;;
49948;SDS011;35840;45.982;8.890;2022-12-20T06:58:19;5.93;;;3.90;;
49948;SDS011;35840;45.982;8.890;2022-12-20T07:00:47;4.82;;;3.58;;
49948;SDS011;35840;45.982;8.890;2022-12-20T07:03:14;3.50;;;2.95;;
49948;SDS011;35840;45.982;8.890;2022-12-20T07:05:41;4.85;;;3.50;;
49948;SDS011;35840;45.982;8.890;2022-12-20T07:08:07;15.25;;;4.15;;
49948;SDS011;35840;45.982;8.890;2022-12-20T07:10:34;4.55;;;2.97;;
49948;SDS011;35840;45.982;8.890;2022-12-20T07:13:02;7.00;;;3.25;;
49948;SDS011;35840;45.982;8.890;2022-12-20T07:15:29;4.53;;;2.85;;
49948;SDS011;35840;45.982;8.890;2022-12-20T07:17:58;3.47;;;2.38;;
49948;SDS011;35840;45.982;8.890;2022-12-20T07:20:24;5.40;;;3.38;;
49948;SDS011;35840;45.982;8.890;2022-12-20T07:22:51;5.05;;;2.75;;
49948;SDS011;35840;45.982;8.890;2022-12-20T07:25:18;4.65;;;2.58;;
49948;SDS011;35840;45.982;8.890;2022-12-20T07:27:46;4.95;;;3.10;;
49948;SDS011;35840;45.982;8.890;2022-12-20T07:30:16;4.85;;;2.80;;
49948;SDS011;35840;45.982;8.890;2022-12-20T07:32:44;4.57;;;2.15;;
49948;SDS011;35840;45.982;8.890;2022-12-20T07:35:12;3.55;;;2.20;;
49948;SDS011;35840;45.982;8.890;2022-12-20T07:37:40;5.05;;;2.42;;
49948;SDS011;35840;45.982;8.890;2022-12-20T07:40:07;5.22;;;2.83;;
49948;SDS011;35840;45.982;8.890;2022-12-20T07:42:36;3.75;;;2.60;;
49948;SDS011;35840;45.982;8.890;2022-12-20T07:45:13;5.88;;;2.72;;
49948;SDS011;35840;45.982;8.890;2022-12-20T07:47:40;4.65;;;2.88;;
49948;SDS011;35840;45.982;8.890;2022-12-20T07:50:07;4.25;;;2.70;;
49948;SDS011;35840;45.982;8.890;2022-12-20T07:52:34;3.00;;;2.13;;
49948;SDS011;35840;45.982;8.890;2022-12-20T07:55:03;4.07;;;2.22;;
49948;SDS011;35840;45.982;8.890;2022-12-20T07:57:39;4.50;;;2.80;;
49948;SDS011;35840;45.982;8.890;2022-12-20T08:00:10;5.78;;;2.25;;
49948;SDS011;35840;45.982;8.890;2022-12-20T08:02:39;7.30;;;2.83;;
49948;SDS011;35840;45.982;8.890;2022-12-20T08:05:13;6.65;;;3.08;;
49948;SDS011;35840;45.982;8.890;2022-12-20T08:07:41;5.82;;;2.58;;
49948;SDS011;35840;45.982;8.890;2022-12-20T08:10:10;4.78;;;3.08;;
49948;SDS011;35840;45.982;8.890;2022-12-20T08:12:38;5.07;;;2.22;;
49948;SDS011;35840;45.982;8.890;2022-12-20T08:15:06;4.60;;;2.92;;
49948;SDS011;35840;45.982;8.890;2022-12-20T08:17:34;5.22;;;3.30;;
49948;SDS011;35840;45.982;8.890;2022-12-20T08:20:00;4.13;;;2.60;;
49948;SDS011;35840;45.982;8.890;2022-12-20T08:22:27;6.15;;;3.28;;
49948;SDS011;35840;45.982;8.890;2022-12-20T08:24:54;4.93;;;3.08;;
49948;SDS011;35840;45.982;8.890;2022-12-20T08:27:20;3.53;;;2.65;;
49948;SDS011;35840;45.982;8.890;2022-12-20T08:29:47;3.83;;;2.80;;
49948;SDS011;35840;45.982;8.890;2022-12-20T08:32:15;3.92;;;2.97;;
49948;SDS011;35840;45.982;8.890;2022-12-20T08:34:42;7.82;;;3.33;;
49948;SDS011;35840;45.982;8.890;2022-12-20T08:37:08;6.80;;;3.03;;
49948;SDS011;35840;45.982;8.890;2022-12-20T08:39:40;4.50;;;3.80;;
49948;SDS011;35840;45.982;8.890;2022-12-20T08:42:07;6.68;;;3.70;;
49948;SDS011;35840;45.982;8.890;2022-12-20T08:44:33;6.60;;;4.10;;
49948;SDS011;35840;45.982;8.890;2022-12-20T08:47:00;7.68;;;3.97;;
49948;SDS011;35840;45.982;8.890;2022-12-20T08:49:27;8.13;;;4.22;;
49948;SDS011;35840;45.982;8.890;2022-12-20T08:51:54;8.48;;;3.65;;
49948;SDS011;35840;45.982;8.890;2022-12-20T08:54:20;5.50;;;3.83;;
49948;SDS011;35840;45.982;8.890;2022-12-20T08:56:47;6.57;;;3.60;;
49948;SDS011;35840;45.982;8.890;2022-12-20T08:59:14;4.57;;;3.28;;
49948;SDS011;35840;45.982;8.890;2022-12-20T09:01:40;4.28;;;2.95;;
49948;SDS011;35840;45.982;8.890;2022-12-20T09:04:08;5.85;;;3.40;;
49948;SDS011;35840;45.982;8.890;2022-12-20T09:06:36;5.35;;;3.20;;
49948;SDS011;35840;45.982;8.890;2022-12-20T09:09:04;8.00;;;4.30;;
49948;SDS011;35840;45.982;8.890;2022-12-20T09:11:32;6.45;;;3.85;;
49948;SDS011;35840;45.982;8.890;2022-12-20T09:13:59;8.00;;;4.60;;
49948;SDS011;35840;45.982;8.890;2022-12-20T09:16:27;5.95;;;4.05;;
49948;SDS011;35840;45.982;8.890;2022-12-20T09:18:57;11.43;;;5.32;;
49948;SDS011;35840;45.982;8.890;2022-12-20T09:21:31;7.50;;;4.88;;
49948;SDS011;35840;45.982;8.890;2022-12-20T09:23:58;5.93;;;4.43;;
49948;SDS011;35840;45.982;8.890;2022-12-20T09:26:25;5.57;;;4.18;;
49948;SDS011;35840;45.982;8.890;2022-12-20T09:28:52;7.55;;;4.85;;
49948;SDS011;35840;45.982;8.890;2022-12-20T09:31:21;6.05;;;4.10;;
49948;SDS011;35840;45.982;8.890;2022-12-20T09:33:52;7.85;;;4.82;;
49948;SDS011;35840;45.982;8.890;2022-12-20T09:36:20;9.60;;;4.68;;
49948;SDS011;35840;45.982;8.890;2022-12-20T09:38:48;5.93;;;4.50;;
49948;SDS011;35840;45.982;8.890;2022-12-20T09:41:21;8.60;;;4.28;;
49948;SDS011;35840;45.982;8.890;2022-12-20T09:44:13;7.15;;;3.60;;
49948;SDS011;35840;45.982;8.890;2022-12-20T09:47:14;6.10;;;4.05;;
49948;SDS011;35840;45.982;8.890;2022-12-20T09:49:43;7.03;;;4.10;;
49948;SDS011;35840;45.982;8.890;2022-12-20T10:00:18;7.30;;;4.15;;
49948;SDS011;35840;45.982;8.890;2022-12-20T10:02:46;5.05;;;3.35;;
49948;SDS011;35840;45.982;8.890;2022-12-20T10:15:53;8.55;;;4.90;;
49948;SDS011;35840;45.982;8.890;2022-12-20T10:18:38;7.80;;;5.20;;
49948;SDS011;35840;45.982;8.890;2022-12-20T10:26:48;8.18;;;5.20;;
49948;SDS011;35840;45.982;8.890;2022-12-20T10:29:17;8.75;;;4.68;;
49948;SDS011;35840;45.982;8.890;2022-12-20T10:31:44;7.55;;;5.07;;
49948;SDS011;35840;45.982;8.890;2022-12-20T10:34:11;8.98;;;5.15;;
49948;SDS011;35840;45.982;8.890;2022-12-20T10:36:38;8.05;;;5.25;;
49948;SDS011;35840;45.982;8.890;2022-12-20T10:39:08;7.28;;;4.68;;
49948;SDS011;35840;45.982;8.890;2022-12-20T10:44:15;7.07;;;3.70;;
49948;SDS011;35840;45.982;8.890;2022-12-20T10:46:52;9.00;;;4.43;;
49948;SDS011;35840;45.982;8.890;2022-12-20T10:54:35;5.75;;;3.70;;
49948;SDS011;35840;45.982;8.890;2022-12-20T10:57:18;5.30;;;4.35;;
49948;SDS011;35840;45.982;8.890;2022-12-20T10:59:58;4.88;;;3.60;;
49948;SDS011;35840;45.982;8.890;2022-12-20T11:02:29;5.18;;;3.72;;
49948;SDS011;35840;45.982;8.890;2022-12-20T11:07:39;6.45;;;3.58;;
49948;SDS011;35840;45.982;8.890;2022-12-20T11:10:41;6.43;;;3.65;;
49948;SDS011;35840;45.982;8.890;2022-12-20T11:13:22;6.07;;;3.65;;
49948;SDS011;35840;45.982;8.890;2022-12-20T11:15:52;6.97;;;3.75;;
49948;SDS011;35840;45.982;8.890;2022-12-20T11:18:29;4.70;;;3.15;;
49948;SDS011;35840;45.982;8.890;2022-12-20T11:26:35;6.35;;;3.63;;
49948;SDS011;35840;45.982;8.890;2022-12-20T11:29:20;5.38;;;3.50;;
49948;SDS011;35840;45.982;8.890;2022-12-20T11:35:02;8.43;;;3.65;;
49948;SDS011;35840;45.982;8.890;2022-12-20T11:54:01;4.57;;;3.78;;
49948;SDS011;35840;45.982;8.890;2022-12-20T11:56:43;7.70;;;4.00;;
49948;SDS011;35840;45.982;8.890;2022-12-20T12:05:02;7.07;;;3.00;;
49948;SDS011;35840;45.982;8.890;2022-12-20T12:07:31;5.05;;;3.55;;
49948;SDS011;35840;45.982;8.890;2022-12-20T12:12:36;4.93;;;3.03;;
49948;SDS011;35840;45.982;8.890;2022-12-20T12:23:23;4.22;;;2.50;;
49948;SDS011;35840;45.982;8.890;2022-12-20T12:26:04;7.45;;;3.50;;
49948;SDS011;35840;45.982;8.890;2022-12-20T12:28:35;5.55;;;3.15;;
49948;SDS011;35840;45.982;8.890;2022-12-20T12:31:03;5.47;;;3.60;;
49948;SDS011;35840;45.982;8.890;2022-12-20T12:33:38;5.75;;;3.65;;
49948;SDS011;35840;45.982;8.890;2022-12-20T12:36:17;5.55;;;3.78;;
49948;SDS011;35840;45.982;8.890;2022-12-20T12:47:33;7.45;;;2.88;;
49948;SDS011;35840;45.982;8.890;2022-12-20T12:50:02;5.28;;;3.30;;
49948;SDS011;35840;45.982;8.890;2022-12-20T12:52:39;4.30;;;3.33;;
49948;SDS011;35840;45.982;8.890;2022-12-20T12:58:13;5.57;;;3.42;;
49948;SDS011;35840;45.982;8.890;2022-12-20T13:11:34;4.32;;;2.90;;
49948;SDS011;35840;45.982;8.890;2022-12-20T13:16:37;3.45;;;2.60;;
49948;SDS011;35840;45.982;8.890;2022-12-20T13:21:52;5.72;;;2.80;;
49948;SDS011;35840;45.982;8.890;2022-12-20T13:27:16;3.63;;;2.67;;
49948;SDS011;35840;45.982;8.890;2022-12-20T13:29:55;6.90;;;2.50;;
49948;SDS011;35840;45.982;8.890;2022-12-20T13:37:51;3.50;;;2.60;;
49948;SDS011;35840;45.982;8.890;2022-12-20T13:40:41;2.90;;;2.58;;
49948;SDS011;35840;45.982;8.890;2022-12-20T13:45:47;3.63;;;2.30;;
49948;SDS011;35840;45.982;8.890;2022-12-20T13:48:19;3.63;;;2.50;;
49948;SDS011;35840;45.982;8.890;2022-12-20T13:50:55;7.97;;;3.08;;
49948;SDS011;35840;45.982;8.890;2022-12-20T13:53:23;4.68;;;2.88;;
49948;SDS011;35840;45.982;8.890;2022-12-20T13:55:55;4.53;;;3.22;;
49948;SDS011;35840;45.982;8.890;2022-12-20T14:00:53;6.18;;;3.25;;
49948;SDS011;35840;45.982;8.890;2022-12-20T14:03:30;4.70;;;2.80;;
49948;SDS011;35840;45.982;8.890;2022-12-20T14:06:02;5.55;;;3.13;;
49948;SDS011;35840;45.982;8.890;2022-12-20T14:08:35;8.57;;;3.45;;
49948;SDS011;35840;45.982;8.890;2022-12-20T14:11:09;4.30;;;2.53;;
49948;SDS011;35840;45.982;8.890;2022-12-20T14:13:41;5.28;;;3.10;;
49948;SDS011;35840;45.982;8.890;2022-12-20T14:16:17;5.50;;;2.70;;
49948;SDS011;35840;45.982;8.890;2022-12-20T14:19:02;7.95;;;2.67;;
49948;SDS011;35840;45.982;8.890;2022-12-20T14:21:33;5.45;;;2.42;;
49948;SDS011;35840;45.982;8.890;2022-12-20T14:24:02;5.38;;;3.22;;
49948;SDS011;35840;45.982;8.890;2022-12-20T14:26:32;3.17;;;2.10;;
49948;SDS011;35840;45.982;8.890;2022-12-20T14:29:09;5.55;;;2.78;;
49948;SDS011;35840;45.982;8.890;2022-12-20T14:31:39;4.00;;;2.33;;
49948;SDS011;35840;45.982;8.890;2022-12-20T14:36:39;5.07;;;2.65;;
49948;SDS011;35840;45.982;8.890;2022-12-20T14:41:58;3.83;;;2.33;;
49948;SDS011;35840;45.982;8.890;2022-12-20T14:44:38;5.50;;;3.00;;
49948;SDS011;35840;45.982;8.890;2022-12-20T14:47:22;4.18;;;2.63;;
49948;SDS011;35840;45.982;8.890;2022-12-20T14:49:56;5.75;;;2.83;;
49948;SDS011;35840;45.982;8.890;2022-12-20T14:55:05;3.97;;;2.83;;
49948;SDS011;35840;45.982;8.890;2022-12-20T14:57:45;4.40;;;2.60;;
49948;SDS011;35840;45.982;8.890;2022-12-20T15:13:41;4.22;;;3.13;;
49948;SDS011;35840;45.982;8.890;2022-12-20T15:16:13;4.22;;;2.92;;
49948;SDS011;35840;45.982;8.890;2022-12-20T15:18:45;8.07;;;3.70;;
49948;SDS011;35840;45.982;8.890;2022-12-20T15:21:14;5.47;;;3.15;;
49948;SDS011;35840;45.982;8.890;2022-12-20T15:23:46;5.13;;;2.67;;
49948;SDS011;35840;45.982;8.890;2022-12-20T15:26:15;6.47;;;3.58;;
49948;SDS011;35840;45.982;8.890;2022-12-20T15:28:44;6.43;;;3.45;;
49948;SDS011;35840;45.982;8.890;2022-12-20T15:31:12;5.63;;;3.63;;
49948;SDS011;35840;45.982;8.890;2022-12-20T15:33:40;5.97;;;3.35;;
49948;SDS011;35840;45.982;8.890;2022-12-20T15:36:12;5.28;;;3.33;;
49948;SDS011;35840;45.982;8.890;2022-12-20T15:38:43;11.20;;;4.43;;
49948;SDS011;35840;45.982;8.890;2022-12-20T15:41:30;12.05;;;5.78;;
49948;SDS011;35840;45.982;8.890;2022-12-20T15:44:00;9.35;;;4.70;;
49948;SDS011;35840;45.982;8.890;2022-12-20T15:46:30;10.00;;;4.90;;
49948;SDS011;35840;45.982;8.890;2022-12-20T15:48:57;9.73;;;3.80;;
49948;SDS011;35840;45.982;8.890;2022-12-20T15:53:57;8.55;;;3.38;;
49948;SDS011;35840;45.982;8.890;2022-12-20T15:56:26;14.38;;;4.40;;
49948;SDS011;35840;45.982;8.890;2022-12-20T15:58:54;12.35;;;4.80;;
49948;SDS011;35840;45.982;8.890;2022-12-20T16:01:23;8.02;;;3.70;;
49948;SDS011;35840;45.982;8.890;2022-12-20T16:03:53;8.90;;;4.00;;
49948;SDS011;35840;45.982;8.890;2022-12-20T16:06:19;10.38;;;4.20;;
49948;SDS011;35840;45.982;8.890;2022-12-20T16:08:46;14.88;;;6.32;;
49948;SDS011;35840;45.982;8.890;2022-12-20T16:11:18;8.02;;;4.10;;
49948;SDS011;35840;45.982;8.890;2022-12-20T16:13:47;14.20;;;7.43;;
49948;SDS011;35840;45.982;8.890;2022-12-20T16:16:15;14.30;;;7.50;;
49948;SDS011;35840;45.982;8.890;2022-12-20T16:18:43;14.82;;;7.82;;
49948;SDS011;35840;45.982;8.890;2022-12-20T16:21:17;13.05;;;7.65;;
49948;SDS011;35840;45.982;8.890;2022-12-20T16:26:13;10.18;;;5.57;;
49948;SDS011;35840;45.982;8.890;2022-12-20T16:28:41;9.27;;;4.78;;
49948;SDS011;35840;45.982;8.890;2022-12-20T16:31:10;8.15;;;3.75;;
49948;SDS011;35840;45.982;8.890;2022-12-20T16:33:43;7.35;;;3.92;;
49948;SDS011;35840;45.982;8.890;2022-12-20T16:36:09;9.52;;;4.45;;
49948;SDS011;35840;45.982;8.890;2022-12-20T16:38:37;10.57;;;5.30;;
49948;SDS011;35840;45.982;8.890;2022-12-20T16:41:13;4.68;;;3.70;;
49948;SDS011;35840;45.982;8.890;2022-12-20T16:43:42;7.40;;;4.20;;
49948;SDS011;35840;45.982;8.890;2022-12-20T16:46:13;7.63;;;4.60;;
49948;SDS011;35840;45.982;8.890;2022-12-20T16:48:43;6.95;;;4.55;;
49948;SDS011;35840;45.982;8.890;2022-12-20T16:51:27;8.80;;;4.63;;
49948;SDS011;35840;45.982;8.890;2022-12-20T16:54:00;8.98;;;5.97;;
49948;SDS011;35840;45.982;8.890;2022-12-20T16:56:45;11.10;;;6.85;;
49948;SDS011;35840;45.982;8.890;2022-12-20T16:59:13;10.05;;;6.60;;
49948;SDS011;35840;45.982;8.890;2022-12-20T17:01:47;9.18;;;5.70;;
49948;SDS011;35840;45.982;8.890;2022-12-20T17:04:16;8.73;;;5.35;;
49948;SDS011;35840;45.982;8.890;2022-12-20T17:06:44;9.07;;;5.18;;
49948;SDS011;35840;45.982;8.890;2022-12-20T17:09:12;9.13;;;5.80;;
49948;SDS011;35840;45.982;8.890;2022-12-20T17:11:57;11.73;;;5.78;;
49948;SDS011;35840;45.982;8.890;2022-12-20T17:14:24;11.32;;;4.90;;
49948;SDS011;35840;45.982;8.890;2022-12-20T17:16:51;7.38;;;5.10;;
49948;SDS011;35840;45.982;8.890;2022-12-20T17:19:17;6.35;;;4.03;;
49948;SDS011;35840;45.982;8.890;2022-12-20T17:21:45;9.48;;;4.80;;
49948;SDS011;35840;45.982;8.890;2022-12-20T17:24:31;5.63;;;4.20;;
49948;SDS011;35840;45.982;8.890;2022-12-20T17:26:58;8.43;;;4.22;;
49948;SDS011;35840;45.982;8.890;2022-12-20T17:29:25;7.85;;;4.18;;
49948;SDS011;35840;45.982;8.890;2022-12-20T17:31:52;11.50;;;4.10;;
49948;SDS011;35840;45.982;8.890;2022-12-20T17:34:23;7.88;;;3.65;;
49948;SDS011;35840;45.982;8.890;2022-12-20T17:36:53;4.90;;;3.60;;
49948;SDS011;35840;45.982;8.890;2022-12-20T17:39:21;10.20;;;4.60;;
49948;SDS011;35840;45.982;8.890;2022-12-20T17:41:49;7.13;;;4.55;;
49948;SDS011;35840;45.982;8.890;2022-12-20T17:44:18;8.00;;;4.18;;
49948;SDS011;35840;45.982;8.890;2022-12-20T17:46:46;6.82;;;3.97;;
49948;SDS011;35840;45.982;8.890;2022-12-20T17:49:13;6.75;;;4.28;;
49948;SDS011;35840;45.982;8.890;2022-12-20T17:51:41;8.45;;;5.03;;